sensor_id;sensor_type;location;lat;lon;timestamp;P1;durP1;ratioP1;P2;durP2;ratioP2
54923;SDS011;40825;52.270;20.984;2023-06-22T00:01:27;26.80;;;22.00;;
54923;SDS011;40825;52.270;20.984;2023-06-22T00:03:53;25.90;;;21.40;;
54923;SDS011;40825;52.270;20.984;2023-06-22T00:06:18;26.00;;;22.20;;
54923;SDS011;40825;52.270;20.984;2023-06-22T00:08:44;26.70;;;20.90;;
54923;SDS011;40825;52.270;20.984;2023-06-22T00:11:10;25.70;;;21.40;;
54923;SDS011;40825;52.270;20.984;2023-06-22T00:13:36;26.90;;;20.60;;
54923;SDS011;40825;52.270;20.984;2023-06-22T00:16:03;25.70;;;20.80;;
54923;SDS011;40825;52.270;20.984;2023-06-22T00:18:28;28.60;;;21.30;;
54923;SDS011;40825;52.270;20.984;2023-06-22T00:20:55;25.50;;;21.10;;
54923;SDS011;40825;52.270;20.984;2023-06-22T00:23:24;24.90;;;20.40;;
54923;SDS011;40825;52.270;20.984;2023-06-22T00:25:51;28.00;;;23.10;;
54923;SDS011;40825;52.270;20.984;2023-06-22T00:28:17;25.50;;;21.10;;
54923;SDS011;40825;52.270;20.984;2023-06-22T00:30:42;26.30;;;21.30;;
54923;SDS011;40825;52.270;20.984;2023-06-22T00:33:08;28.20;;;21.50;;
54923;SDS011;40825;52.270;20.984;2023-06-22T00:35:33;28.00;;;22.30;;
54923;SDS011;40825;52.270;20.984;2023-06-22T00:37:59;26.50;;;21.60;;
54923;SDS011;40825;52.270;20.984;2023-06-22T00:40:26;26.90;;;21.10;;
54923;SDS011;40825;52.270;20.984;2023-06-22T00:42:53;29.20;;;22.80;;
54923;SDS011;40825;52.270;20.984;2023-06-22T00:45:19;27.00;;;22.40;;
54923;SDS011;40825;52.270;20.984;2023-06-22T00:47:44;36.20;;;21.80;;
54923;SDS011;40825;52.270;20.984;2023-06-22T00:50:11;26.00;;;22.80;;
54923;SDS011;40825;52.270;20.984;2023-06-22T00:52:43;25.90;;;21.10;;
54923;SDS011;40825;52.270;20.984;2023-06-22T00:57:37;28.50;;;23.90;;
54923;SDS011;40825;52.270;20.984;2023-06-22T01:00:03;27.50;;;21.60;;
54923;SDS011;40825;52.270;20.984;2023-06-22T01:02:33;26.50;;;21.20;;
54923;SDS011;40825;52.270;20.984;2023-06-22T01:04:59;29.20;;;22.70;;
54923;SDS011;40825;52.270;20.984;2023-06-22T01:10:07;25.20;;;20.50;;
54923;SDS011;40825;52.270;20.984;2023-06-22T01:12:34;26.10;;;20.80;;
54923;SDS011;40825;52.270;20.984;2023-06-22T01:15:28;25.40;;;19.70;;
54923;SDS011;40825;52.270;20.984;2023-06-22T01:18:07;25.80;;;19.80;;
54923;SDS011;40825;52.270;20.984;2023-06-22T01:20:35;27.20;;;20.50;;
54923;SDS011;40825;52.270;20.984;2023-06-22T01:25:46;27.70;;;22.10;;
54923;SDS011;40825;52.270;20.984;2023-06-22T01:31:10;27.50;;;20.90;;
54923;SDS011;40825;52.270;20.984;2023-06-22T01:33:39;25.60;;;20.60;;
54923;SDS011;40825;52.270;20.984;2023-06-22T01:36:08;27.30;;;21.70;;
54923;SDS011;40825;52.270;20.984;2023-06-22T01:38:34;27.10;;;22.40;;
54923;SDS011;40825;52.270;20.984;2023-06-22T01:41:02;26.70;;;21.30;;
54923;SDS011;40825;52.270;20.984;2023-06-22T01:43:29;25.20;;;20.50;;
54923;SDS011;40825;52.270;20.984;2023-06-22T01:45:56;26.80;;;21.30;;
54923;SDS011;40825;52.270;20.984;2023-06-22T01:48:23;26.10;;;20.70;;
54923;SDS011;40825;52.270;20.984;2023-06-22T01:50:51;31.00;;;22.70;;
54923;SDS011;40825;52.270;20.984;2023-06-22T01:53:18;27.70;;;21.80;;
54923;SDS011;40825;52.270;20.984;2023-06-22T01:55:43;26.20;;;21.40;;
54923;SDS011;40825;52.270;20.984;2023-06-22T01:58:09;27.70;;;22.20;;
54923;SDS011;40825;52.270;20.984;2023-06-22T02:00:37;29.90;;;22.70;;
54923;SDS011;40825;52.270;20.984;2023-06-22T02:03:38;27.30;;;22.10;;
54923;SDS011;40825;52.270;20.984;2023-06-22T02:06:08;31.10;;;25.40;;
54923;SDS011;40825;52.270;20.984;2023-06-22T02:08:41;30.00;;;24.00;;
54923;SDS011;40825;52.270;20.984;2023-06-22T02:11:15;33.60;;;24.80;;
54923;SDS011;40825;52.270;20.984;2023-06-22T02:13:44;30.70;;;24.80;;
54923;SDS011;40825;52.270;20.984;2023-06-22T02:16:11;30.40;;;23.70;;
54923;SDS011;40825;52.270;20.984;2023-06-22T02:18:38;33.20;;;24.40;;
54923;SDS011;40825;52.270;20.984;2023-06-22T02:21:05;31.90;;;27.00;;
54923;SDS011;40825;52.270;20.984;2023-06-22T02:23:32;32.00;;;25.90;;
54923;SDS011;40825;52.270;20.984;2023-06-22T02:26:01;30.70;;;25.00;;
54923;SDS011;40825;52.270;20.984;2023-06-22T02:28:27;33.80;;;27.10;;
54923;SDS011;40825;52.270;20.984;2023-06-22T02:30:53;34.20;;;26.80;;
54923;SDS011;40825;52.270;20.984;2023-06-22T02:33:18;34.70;;;28.60;;
54923;SDS011;40825;52.270;20.984;2023-06-22T02:35:44;34.90;;;27.80;;
54923;SDS011;40825;52.270;20.984;2023-06-22T02:38:13;36.10;;;28.00;;
54923;SDS011;40825;52.270;20.984;2023-06-22T02:40:39;34.00;;;26.70;;
54923;SDS011;40825;52.270;20.984;2023-06-22T02:43:05;38.80;;;29.10;;
54923;SDS011;40825;52.270;20.984;2023-06-22T02:45:30;39.20;;;30.20;;
54923;SDS011;40825;52.270;20.984;2023-06-22T02:47:56;42.30;;;30.40;;
54923;SDS011;40825;52.270;20.984;2023-06-22T02:50:22;40.40;;;30.80;;
54923;SDS011;40825;52.270;20.984;2023-06-22T02:52:48;40.90;;;30.20;;
54923;SDS011;40825;52.270;20.984;2023-06-22T02:55:13;41.70;;;31.50;;
54923;SDS011;40825;52.270;20.984;2023-06-22T02:57:39;41.10;;;31.00;;
54923;SDS011;40825;52.270;20.984;2023-06-22T03:00:09;41.80;;;32.10;;
54923;SDS011;40825;52.270;20.984;2023-06-22T03:02:45;44.20;;;31.70;;
54923;SDS011;40825;52.270;20.984;2023-06-22T03:05:12;42.10;;;30.70;;
54923;SDS011;40825;52.270;20.984;2023-06-22T03:07:42;43.00;;;34.30;;
54923;SDS011;40825;52.270;20.984;2023-06-22T03:10:09;40.30;;;30.80;;
54923;SDS011;40825;52.270;20.984;2023-06-22T03:12:35;45.10;;;32.80;;
54923;SDS011;40825;52.270;20.984;2023-06-22T03:15:03;39.20;;;28.70;;
54923;SDS011;40825;52.270;20.984;2023-06-22T03:17:30;45.40;;;32.30;;
54923;SDS011;40825;52.270;20.984;2023-06-22T03:19:55;41.60;;;31.70;;
54923;SDS011;40825;52.270;20.984;2023-06-22T03:22:21;43.20;;;31.20;;
54923;SDS011;40825;52.270;20.984;2023-06-22T03:24:47;41.60;;;33.00;;
54923;SDS011;40825;52.270;20.984;2023-06-22T03:27:12;41.70;;;30.80;;
54923;SDS011;40825;52.270;20.984;2023-06-22T03:29:38;40.00;;;28.90;;
54923;SDS011;40825;52.270;20.984;2023-06-22T03:32:04;40.10;;;28.70;;
54923;SDS011;40825;52.270;20.984;2023-06-22T03:34:32;41.00;;;30.10;;
54923;SDS011;40825;52.270;20.984;2023-06-22T03:36:59;37.50;;;28.90;;
54923;SDS011;40825;52.270;20.984;2023-06-22T03:39:25;41.90;;;30.50;;
54923;SDS011;40825;52.270;20.984;2023-06-22T03:41:51;42.80;;;29.70;;
54923;SDS011;40825;52.270;20.984;2023-06-22T03:44:16;41.10;;;29.50;;
54923;SDS011;40825;52.270;20.984;2023-06-22T03:46:42;38.40;;;29.20;;
54923;SDS011;40825;52.270;20.984;2023-06-22T03:49:07;41.00;;;27.60;;
54923;SDS011;40825;52.270;20.984;2023-06-22T03:51:33;41.40;;;30.40;;
54923;SDS011;40825;52.270;20.984;2023-06-22T03:53:58;37.10;;;27.50;;
54923;SDS011;40825;52.270;20.984;2023-06-22T03:56:24;35.80;;;27.10;;
54923;SDS011;40825;52.270;20.984;2023-06-22T03:58:49;43.10;;;29.20;;
54923;SDS011;40825;52.270;20.984;2023-06-22T04:01:15;42.00;;;29.70;;
54923;SDS011;40825;52.270;20.984;2023-06-22T04:03:42;40.40;;;30.80;;
54923;SDS011;40825;52.270;20.984;2023-06-22T04:06:08;38.40;;;27.60;;
54923;SDS011;40825;52.270;20.984;2023-06-22T04:08:34;37.40;;;30.50;;
54923;SDS011;40825;52.270;20.984;2023-06-22T04:11:02;38.90;;;28.60;;
54923;SDS011;40825;52.270;20.984;2023-06-22T04:13:27;36.70;;;26.00;;
54923;SDS011;40825;52.270;20.984;2023-06-22T04:15:53;37.90;;;28.40;;
54923;SDS011;40825;52.270;20.984;2023-06-22T04:18:18;36.10;;;27.20;;
54923;SDS011;40825;52.270;20.984;2023-06-22T04:20:44;36.10;;;25.90;;
54923;SDS011;40825;52.270;20.984;2023-06-22T04:23:12;38.90;;;30.30;;
54923;SDS011;40825;52.270;20.984;2023-06-22T04:25:38;36.00;;;27.40;;
54923;SDS011;40825;52.270;20.984;2023-06-22T04:28:04;33.80;;;26.20;;
54923;SDS011;40825;52.270;20.984;2023-06-22T04:30:32;33.30;;;24.10;;
54923;SDS011;40825;52.270;20.984;2023-06-22T04:32:58;33.90;;;25.60;;
54923;SDS011;40825;52.270;20.984;2023-06-22T04:35:24;32.00;;;26.20;;
54923;SDS011;40825;52.270;20.984;2023-06-22T04:37:50;32.80;;;24.60;;
54923;SDS011;40825;52.270;20.984;2023-06-22T04:40:21;32.30;;;24.50;;
54923;SDS011;40825;52.270;20.984;2023-06-22T04:42:47;32.00;;;23.80;;
54923;SDS011;40825;52.270;20.984;2023-06-22T04:45:18;34.40;;;24.80;;
54923;SDS011;40825;52.270;20.984;2023-06-22T04:47:45;32.00;;;24.20;;
54923;SDS011;40825;52.270;20.984;2023-06-22T04:50:11;32.10;;;24.10;;
54923;SDS011;40825;52.270;20.984;2023-06-22T04:52:37;32.00;;;25.00;;
54923;SDS011;40825;52.270;20.984;2023-06-22T04:55:03;32.30;;;23.20;;
54923;SDS011;40825;52.270;20.984;2023-06-22T04:57:32;32.70;;;24.80;;
54923;SDS011;40825;52.270;20.984;2023-06-22T05:00:00;31.20;;;22.30;;
54923;SDS011;40825;52.270;20.984;2023-06-22T05:02:41;31.10;;;23.30;;
54923;SDS011;40825;52.270;20.984;2023-06-22T05:05:07;30.50;;;22.90;;
54923;SDS011;40825;52.270;20.984;2023-06-22T05:07:33;33.80;;;23.50;;
54923;SDS011;40825;52.270;20.984;2023-06-22T05:09:59;30.80;;;22.90;;
54923;SDS011;40825;52.270;20.984;2023-06-22T05:12:27;32.50;;;23.00;;
54923;SDS011;40825;52.270;20.984;2023-06-22T05:14:54;32.00;;;22.10;;
54923;SDS011;40825;52.270;20.984;2023-06-22T05:17:20;32.90;;;23.20;;
54923;SDS011;40825;52.270;20.984;2023-06-22T05:19:45;29.40;;;22.00;;
54923;SDS011;40825;52.270;20.984;2023-06-22T05:22:16;30.10;;;22.30;;
54923;SDS011;40825;52.270;20.984;2023-06-22T05:24:43;30.10;;;22.90;;
54923;SDS011;40825;52.270;20.984;2023-06-22T05:27:09;29.50;;;21.80;;
54923;SDS011;40825;52.270;20.984;2023-06-22T05:29:35;30.10;;;21.70;;
54923;SDS011;40825;52.270;20.984;2023-06-22T05:32:01;30.40;;;21.10;;
54923;SDS011;40825;52.270;20.984;2023-06-22T05:34:28;30.20;;;21.40;;
54923;SDS011;40825;52.270;20.984;2023-06-22T05:36:53;30.60;;;22.00;;
54923;SDS011;40825;52.270;20.984;2023-06-22T05:39:19;27.50;;;20.00;;
54923;SDS011;40825;52.270;20.984;2023-06-22T05:41:44;29.50;;;20.90;;
54923;SDS011;40825;52.270;20.984;2023-06-22T05:44:11;41.20;;;21.70;;
54923;SDS011;40825;52.270;20.984;2023-06-22T05:46:37;28.70;;;20.80;;
54923;SDS011;40825;52.270;20.984;2023-06-22T05:51:30;28.60;;;21.80;;
54923;SDS011;40825;52.270;20.984;2023-06-22T05:53:55;27.20;;;18.50;;
54923;SDS011;40825;52.270;20.984;2023-06-22T05:56:21;25.10;;;19.20;;
54923;SDS011;40825;52.270;20.984;2023-06-22T05:58:46;26.50;;;18.40;;
54923;SDS011;40825;52.270;20.984;2023-06-22T06:01:12;30.10;;;21.10;;
54923;SDS011;40825;52.270;20.984;2023-06-22T06:03:38;26.30;;;18.10;;
54923;SDS011;40825;52.270;20.984;2023-06-22T06:06:09;23.40;;;17.50;;
54923;SDS011;40825;52.270;20.984;2023-06-22T06:08:36;25.90;;;18.90;;
54923;SDS011;40825;52.270;20.984;2023-06-22T06:11:02;23.90;;;17.80;;
54923;SDS011;40825;52.270;20.984;2023-06-22T06:13:28;23.60;;;17.20;;
54923;SDS011;40825;52.270;20.984;2023-06-22T06:15:53;25.80;;;19.20;;
54923;SDS011;40825;52.270;20.984;2023-06-22T06:18:20;22.90;;;16.90;;
54923;SDS011;40825;52.270;20.984;2023-06-22T06:20:46;23.10;;;17.40;;
54923;SDS011;40825;52.270;20.984;2023-06-22T06:23:11;23.20;;;17.50;;
54923;SDS011;40825;52.270;20.984;2023-06-22T06:25:37;20.00;;;16.30;;
54923;SDS011;40825;52.270;20.984;2023-06-22T06:28:03;23.00;;;16.30;;
54923;SDS011;40825;52.270;20.984;2023-06-22T06:30:28;20.20;;;15.50;;
54923;SDS011;40825;52.270;20.984;2023-06-22T06:32:54;19.90;;;15.40;;
54923;SDS011;40825;52.270;20.984;2023-06-22T06:35:19;19.30;;;14.40;;
54923;SDS011;40825;52.270;20.984;2023-06-22T06:37:48;21.40;;;15.00;;
54923;SDS011;40825;52.270;20.984;2023-06-22T06:40:15;17.30;;;13.70;;
54923;SDS011;40825;52.270;20.984;2023-06-22T06:42:42;18.30;;;13.00;;
54923;SDS011;40825;52.270;20.984;2023-06-22T06:45:17;16.80;;;12.70;;
54923;SDS011;40825;52.270;20.984;2023-06-22T06:47:45;18.20;;;14.10;;
54923;SDS011;40825;52.270;20.984;2023-06-22T06:50:12;17.00;;;12.60;;
54923;SDS011;40825;52.270;20.984;2023-06-22T06:52:37;18.50;;;13.80;;
54923;SDS011;40825;52.270;20.984;2023-06-22T06:55:03;19.70;;;13.50;;
54923;SDS011;40825;52.270;20.984;2023-06-22T06:57:33;16.30;;;12.70;;
54923;SDS011;40825;52.270;20.984;2023-06-22T06:59:59;17.60;;;12.60;;
54923;SDS011;40825;52.270;20.984;2023-06-22T07:02:25;16.50;;;12.00;;
54923;SDS011;40825;52.270;20.984;2023-06-22T07:04:53;18.40;;;12.20;;
54923;SDS011;40825;52.270;20.984;2023-06-22T07:07:20;16.40;;;12.00;;
54923;SDS011;40825;52.270;20.984;2023-06-22T07:09:46;15.00;;;11.70;;
54923;SDS011;40825;52.270;20.984;2023-06-22T07:12:11;18.50;;;12.00;;
54923;SDS011;40825;52.270;20.984;2023-06-22T07:14:37;13.80;;;9.20;;
54923;SDS011;40825;52.270;20.984;2023-06-22T07:17:02;14.70;;;10.60;;
54923;SDS011;40825;52.270;20.984;2023-06-22T07:19:28;15.70;;;10.40;;
54923;SDS011;40825;52.270;20.984;2023-06-22T07:21:54;12.80;;;9.20;;
54923;SDS011;40825;52.270;20.984;2023-06-22T07:24:22;11.00;;;8.50;;
54923;SDS011;40825;52.270;20.984;2023-06-22T07:26:49;13.80;;;9.10;;
54923;SDS011;40825;52.270;20.984;2023-06-22T07:29:16;10.90;;;7.70;;
54923;SDS011;40825;52.270;20.984;2023-06-22T07:31:42;12.00;;;8.10;;
54923;SDS011;40825;52.270;20.984;2023-06-22T07:34:07;14.00;;;8.00;;
54923;SDS011;40825;52.270;20.984;2023-06-22T07:36:33;9.50;;;7.40;;
54923;SDS011;40825;52.270;20.984;2023-06-22T07:39:01;11.60;;;6.70;;
54923;SDS011;40825;52.270;20.984;2023-06-22T07:43:53;9.40;;;6.10;;
54923;SDS011;40825;52.270;20.984;2023-06-22T07:46:19;9.10;;;6.10;;
54923;SDS011;40825;52.270;20.984;2023-06-22T07:48:44;9.10;;;6.30;;
54923;SDS011;40825;52.270;20.984;2023-06-22T07:51:10;11.30;;;5.80;;
54923;SDS011;40825;52.270;20.984;2023-06-22T07:53:41;8.70;;;5.00;;
54923;SDS011;40825;52.270;20.984;2023-06-22T07:56:09;6.70;;;4.40;;
54923;SDS011;40825;52.270;20.984;2023-06-22T07:58:36;10.30;;;5.50;;
54923;SDS011;40825;52.270;20.984;2023-06-22T08:01:02;7.30;;;4.60;;
54923;SDS011;40825;52.270;20.984;2023-06-22T08:03:28;8.10;;;4.90;;
54923;SDS011;40825;52.270;20.984;2023-06-22T08:05:54;7.70;;;4.70;;
54923;SDS011;40825;52.270;20.984;2023-06-22T08:08:20;8.00;;;4.70;;
54923;SDS011;40825;52.270;20.984;2023-06-22T08:10:46;7.80;;;3.70;;
54923;SDS011;40825;52.270;20.984;2023-06-22T08:13:13;7.00;;;4.40;;
54923;SDS011;40825;52.270;20.984;2023-06-22T08:15:38;5.70;;;3.60;;
54923;SDS011;40825;52.270;20.984;2023-06-22T08:18:04;5.40;;;3.40;;
54923;SDS011;40825;52.270;20.984;2023-06-22T08:20:30;7.40;;;4.10;;
54923;SDS011;40825;52.270;20.984;2023-06-22T08:22:56;5.80;;;4.00;;
54923;SDS011;40825;52.270;20.984;2023-06-22T08:25:23;5.70;;;3.00;;
54923;SDS011;40825;52.270;20.984;2023-06-22T08:27:49;5.40;;;3.20;;
54923;SDS011;40825;52.270;20.984;2023-06-22T08:30:15;6.30;;;3.30;;
54923;SDS011;40825;52.270;20.984;2023-06-22T08:32:42;7.10;;;4.40;;
54923;SDS011;40825;52.270;20.984;2023-06-22T08:35:07;7.50;;;3.70;;
54923;SDS011;40825;52.270;20.984;2023-06-22T08:37:34;7.40;;;4.00;;
54923;SDS011;40825;52.270;20.984;2023-06-22T08:40:01;8.00;;;3.00;;
54923;SDS011;40825;52.270;20.984;2023-06-22T08:42:39;7.50;;;3.00;;
54923;SDS011;40825;52.270;20.984;2023-06-22T08:45:06;5.00;;;3.00;;
54923;SDS011;40825;52.270;20.984;2023-06-22T08:47:32;5.70;;;2.40;;
54923;SDS011;40825;52.270;20.984;2023-06-22T08:49:58;5.30;;;3.30;;
54923;SDS011;40825;52.270;20.984;2023-06-22T08:52:23;4.20;;;2.60;;
54923;SDS011;40825;52.270;20.984;2023-06-22T08:54:49;5.70;;;2.60;;
54923;SDS011;40825;52.270;20.984;2023-06-22T08:57:15;4.80;;;3.00;;
54923;SDS011;40825;52.270;20.984;2023-06-22T08:59:41;5.30;;;2.40;;
54923;SDS011;40825;52.270;20.984;2023-06-22T09:02:07;6.40;;;2.70;;
54923;SDS011;40825;52.270;20.984;2023-06-22T09:04:33;4.90;;;2.90;;
54923;SDS011;40825;52.270;20.984;2023-06-22T09:07:02;7.20;;;3.40;;
54923;SDS011;40825;52.270;20.984;2023-06-22T09:09:29;5.00;;;2.70;;
54923;SDS011;40825;52.270;20.984;2023-06-22T09:11:54;4.90;;;2.30;;
54923;SDS011;40825;52.270;20.984;2023-06-22T09:14:20;5.50;;;2.30;;
54923;SDS011;40825;52.270;20.984;2023-06-22T09:16:45;3.90;;;2.50;;
54923;SDS011;40825;52.270;20.984;2023-06-22T09:19:11;4.50;;;2.20;;
54923;SDS011;40825;52.270;20.984;2023-06-22T09:21:36;3.30;;;2.10;;
54923;SDS011;40825;52.270;20.984;2023-06-22T09:24:02;4.40;;;2.50;;
54923;SDS011;40825;52.270;20.984;2023-06-22T09:26:28;3.90;;;1.90;;
54923;SDS011;40825;52.270;20.984;2023-06-22T09:28:53;6.10;;;2.20;;
54923;SDS011;40825;52.270;20.984;2023-06-22T09:31:19;5.70;;;2.20;;
54923;SDS011;40825;52.270;20.984;2023-06-22T09:33:53;4.90;;;2.00;;
54923;SDS011;40825;52.270;20.984;2023-06-22T09:36:20;4.40;;;2.30;;
54923;SDS011;40825;52.270;20.984;2023-06-22T09:38:48;6.70;;;2.60;;
54923;SDS011;40825;52.270;20.984;2023-06-22T09:41:21;4.60;;;2.50;;
54923;SDS011;40825;52.270;20.984;2023-06-22T09:43:47;4.80;;;2.60;;
54923;SDS011;40825;52.270;20.984;2023-06-22T09:46:15;6.20;;;2.70;;
54923;SDS011;40825;52.270;20.984;2023-06-22T09:48:42;4.60;;;2.00;;
54923;SDS011;40825;52.270;20.984;2023-06-22T09:51:07;6.00;;;2.10;;
54923;SDS011;40825;52.270;20.984;2023-06-22T09:53:33;4.90;;;2.60;;
54923;SDS011;40825;52.270;20.984;2023-06-22T09:56:00;7.60;;;2.70;;
54923;SDS011;40825;52.270;20.984;2023-06-22T09:58:27;5.60;;;2.10;;
54923;SDS011;40825;52.270;20.984;2023-06-22T10:00:53;3.90;;;2.10;;
54923;SDS011;40825;52.270;20.984;2023-06-22T10:03:19;5.80;;;3.00;;
54923;SDS011;40825;52.270;20.984;2023-06-22T10:05:45;6.10;;;3.10;;
54923;SDS011;40825;52.270;20.984;2023-06-22T10:08:11;5.30;;;2.50;;
54923;SDS011;40825;52.270;20.984;2023-06-22T10:10:37;7.90;;;3.20;;
54923;SDS011;40825;52.270;20.984;2023-06-22T10:13:06;7.20;;;2.50;;
54923;SDS011;40825;52.270;20.984;2023-06-22T10:15:36;8.50;;;3.00;;
54923;SDS011;40825;52.270;20.984;2023-06-22T10:18:03;6.00;;;3.00;;
54923;SDS011;40825;52.270;20.984;2023-06-22T10:20:28;5.60;;;3.10;;
54923;SDS011;40825;52.270;20.984;2023-06-22T10:22:54;7.90;;;3.00;;
54923;SDS011;40825;52.270;20.984;2023-06-22T10:25:19;6.30;;;2.80;;
54923;SDS011;40825;52.270;20.984;2023-06-22T10:27:45;6.10;;;2.60;;
54923;SDS011;40825;52.270;20.984;2023-06-22T10:30:11;8.90;;;3.70;;
54923;SDS011;40825;52.270;20.984;2023-06-22T10:32:38;5.60;;;3.20;;
54923;SDS011;40825;52.270;20.984;2023-06-22T10:35:05;4.70;;;2.60;;
54923;SDS011;40825;52.270;20.984;2023-06-22T10:37:31;5.70;;;2.90;;
54923;SDS011;40825;52.270;20.984;2023-06-22T10:39:56;7.10;;;2.90;;
54923;SDS011;40825;52.270;20.984;2023-06-22T10:42:22;6.50;;;3.00;;
54923;SDS011;40825;52.270;20.984;2023-06-22T10:44:48;6.40;;;2.60;;
54923;SDS011;40825;52.270;20.984;2023-06-22T10:47:14;7.10;;;2.70;;
54923;SDS011;40825;52.270;20.984;2023-06-22T10:49:39;6.20;;;2.70;;
54923;SDS011;40825;52.270;20.984;2023-06-22T10:52:08;11.10;;;3.80;;
54923;SDS011;40825;52.270;20.984;2023-06-22T10:54:37;6.10;;;3.90;;
54923;SDS011;40825;52.270;20.984;2023-06-22T10:57:03;6.30;;;3.40;;
54923;SDS011;40825;52.270;20.984;2023-06-22T10:59:29;6.90;;;3.60;;
54923;SDS011;40825;52.270;20.984;2023-06-22T11:01:58;7.00;;;2.90;;
54923;SDS011;40825;52.270;20.984;2023-06-22T11:04:24;5.20;;;2.60;;
54923;SDS011;40825;52.270;20.984;2023-06-22T11:06:50;6.70;;;3.30;;
54923;SDS011;40825;52.270;20.984;2023-06-22T11:09:16;6.90;;;3.50;;
54923;SDS011;40825;52.270;20.984;2023-06-22T11:11:46;7.40;;;3.20;;
54923;SDS011;40825;52.270;20.984;2023-06-22T11:14:15;6.20;;;3.00;;
54923;SDS011;40825;52.270;20.984;2023-06-22T11:16:41;7.20;;;3.70;;
54923;SDS011;40825;52.270;20.984;2023-06-22T11:19:06;7.40;;;4.00;;
54923;SDS011;40825;52.270;20.984;2023-06-22T11:21:32;7.70;;;3.80;;
54923;SDS011;40825;52.270;20.984;2023-06-22T11:23:58;7.00;;;3.60;;
54923;SDS011;40825;52.270;20.984;2023-06-22T11:26:24;6.00;;;3.00;;
54923;SDS011;40825;52.270;20.984;2023-06-22T11:28:53;6.90;;;2.80;;
54923;SDS011;40825;52.270;20.984;2023-06-22T11:31:19;7.60;;;2.70;;
54923;SDS011;40825;52.270;20.984;2023-06-22T11:33:44;7.50;;;3.00;;
54923;SDS011;40825;52.270;20.984;2023-06-22T11:36:11;7.50;;;3.40;;
54923;SDS011;40825;52.270;20.984;2023-06-22T11:38:37;8.20;;;3.10;;
54923;SDS011;40825;52.270;20.984;2023-06-22T11:41:07;5.00;;;2.70;;
54923;SDS011;40825;52.270;20.984;2023-06-22T11:43:34;6.30;;;2.70;;
54923;SDS011;40825;52.270;20.984;2023-06-22T11:46:00;5.30;;;2.90;;
54923;SDS011;40825;52.270;20.984;2023-06-22T11:48:26;6.00;;;3.10;;
54923;SDS011;40825;52.270;20.984;2023-06-22T11:50:52;6.50;;;3.30;;
54923;SDS011;40825;52.270;20.984;2023-06-22T11:53:17;7.40;;;3.80;;
54923;SDS011;40825;52.270;20.984;2023-06-22T11:55:43;6.10;;;3.70;;
54923;SDS011;40825;52.270;20.984;2023-06-22T11:58:09;6.50;;;3.40;;
54923;SDS011;40825;52.270;20.984;2023-06-22T12:00:36;6.90;;;3.50;;
54923;SDS011;40825;52.270;20.984;2023-06-22T12:03:03;7.80;;;3.20;;
54923;SDS011;40825;52.270;20.984;2023-06-22T12:05:29;7.40;;;3.40;;
54923;SDS011;40825;52.270;20.984;2023-06-22T12:07:54;6.70;;;3.40;;
54923;SDS011;40825;52.270;20.984;2023-06-22T12:10:22;6.30;;;4.00;;
54923;SDS011;40825;52.270;20.984;2023-06-22T12:12:48;6.30;;;3.10;;
54923;SDS011;40825;52.270;20.984;2023-06-22T12:15:14;9.20;;;3.80;;
54923;SDS011;40825;52.270;20.984;2023-06-22T12:17:40;7.30;;;2.90;;
54923;SDS011;40825;52.270;20.984;2023-06-22T12:20:06;5.60;;;3.20;;
54923;SDS011;40825;52.270;20.984;2023-06-22T12:22:36;5.80;;;3.00;;
54923;SDS011;40825;52.270;20.984;2023-06-22T12:25:03;9.20;;;3.80;;
54923;SDS011;40825;52.270;20.984;2023-06-22T12:27:29;6.70;;;3.40;;
54923;SDS011;40825;52.270;20.984;2023-06-22T12:29:56;5.60;;;3.20;;
54923;SDS011;40825;52.270;20.984;2023-06-22T12:32:21;5.10;;;2.90;;
54923;SDS011;40825;52.270;20.984;2023-06-22T12:34:47;7.20;;;3.60;;
54923;SDS011;40825;52.270;20.984;2023-06-22T12:37:12;7.50;;;3.40;;
54923;SDS011;40825;52.270;20.984;2023-06-22T12:39:40;8.70;;;4.30;;
54923;SDS011;40825;52.270;20.984;2023-06-22T12:42:06;6.80;;;3.70;;
54923;SDS011;40825;52.270;20.984;2023-06-22T12:44:37;7.80;;;3.60;;
54923;SDS011;40825;52.270;20.984;2023-06-22T12:47:03;7.40;;;3.70;;
54923;SDS011;40825;52.270;20.984;2023-06-22T12:49:29;6.10;;;3.60;;
54923;SDS011;40825;52.270;20.984;2023-06-22T12:51:55;6.40;;;3.60;;
54923;SDS011;40825;52.270;20.984;2023-06-22T12:54:20;6.70;;;3.90;;
54923;SDS011;40825;52.270;20.984;2023-06-22T12:56:46;6.40;;;3.50;;
54923;SDS011;40825;52.270;20.984;2023-06-22T12:59:12;5.50;;;3.50;;
54923;SDS011;40825;52.270;20.984;2023-06-22T13:01:37;7.40;;;3.80;;
54923;SDS011;40825;52.270;20.984;2023-06-22T13:04:06;5.70;;;3.50;;
54923;SDS011;40825;52.270;20.984;2023-06-22T13:06:31;6.30;;;3.40;;
54923;SDS011;40825;52.270;20.984;2023-06-22T13:08:57;6.50;;;3.30;;
54923;SDS011;40825;52.270;20.984;2023-06-22T13:11:22;7.00;;;3.50;;
54923;SDS011;40825;52.270;20.984;2023-06-22T13:13:48;6.70;;;3.40;;
54923;SDS011;40825;52.270;20.984;2023-06-22T13:16:13;8.50;;;3.60;;
54923;SDS011;40825;52.270;20.984;2023-06-22T13:18:39;8.20;;;3.10;;
54923;SDS011;40825;52.270;20.984;2023-06-22T13:21:04;9.50;;;3.80;;
54923;SDS011;40825;52.270;20.984;2023-06-22T13:23:30;6.50;;;3.50;;
54923;SDS011;40825;52.270;20.984;2023-06-22T13:25:57;6.90;;;3.80;;
54923;SDS011;40825;52.270;20.984;2023-06-22T13:28:23;6.30;;;3.40;;
54923;SDS011;40825;52.270;20.984;2023-06-22T13:30:49;6.80;;;4.20;;
54923;SDS011;40825;52.270;20.984;2023-06-22T13:33:14;7.80;;;3.90;;
54923;SDS011;40825;52.270;20.984;2023-06-22T13:35:40;5.80;;;3.30;;
54923;SDS011;40825;52.270;20.984;2023-06-22T13:38:08;5.50;;;3.70;;
54923;SDS011;40825;52.270;20.984;2023-06-22T13:40:34;7.40;;;3.90;;
54923;SDS011;40825;52.270;20.984;2023-06-22T13:43:01;6.60;;;4.10;;
54923;SDS011;40825;52.270;20.984;2023-06-22T13:45:26;6.70;;;4.10;;
54923;SDS011;40825;52.270;20.984;2023-06-22T13:47:52;7.60;;;4.10;;
54923;SDS011;40825;52.270;20.984;2023-06-22T13:50:17;7.30;;;4.80;;
54923;SDS011;40825;52.270;20.984;2023-06-22T13:52:43;7.50;;;5.20;;
54923;SDS011;40825;52.270;20.984;2023-06-22T13:55:09;7.30;;;4.90;;
54923;SDS011;40825;52.270;20.984;2023-06-22T13:57:37;8.10;;;5.20;;
54923;SDS011;40825;52.270;20.984;2023-06-22T14:00:03;7.60;;;4.60;;
54923;SDS011;40825;52.270;20.984;2023-06-22T14:02:32;9.00;;;4.40;;
54923;SDS011;40825;52.270;20.984;2023-06-22T14:04:58;7.90;;;4.90;;
54923;SDS011;40825;52.270;20.984;2023-06-22T14:07:23;7.80;;;4.80;;
54923;SDS011;40825;52.270;20.984;2023-06-22T14:09:49;8.60;;;4.40;;
54923;SDS011;40825;52.270;20.984;2023-06-22T14:12:15;6.70;;;4.30;;
54923;SDS011;40825;52.270;20.984;2023-06-22T14:14:43;8.50;;;4.90;;
54923;SDS011;40825;52.270;20.984;2023-06-22T14:17:08;9.60;;;4.50;;
54923;SDS011;40825;52.270;20.984;2023-06-22T14:19:34;7.40;;;4.20;;
54923;SDS011;40825;52.270;20.984;2023-06-22T14:21:59;6.40;;;4.20;;
54923;SDS011;40825;52.270;20.984;2023-06-22T14:24:25;6.60;;;4.00;;
54923;SDS011;40825;52.270;20.984;2023-06-22T14:26:50;8.40;;;4.30;;
54923;SDS011;40825;52.270;20.984;2023-06-22T14:29:16;8.00;;;4.40;;
54923;SDS011;40825;52.270;20.984;2023-06-22T14:31:44;7.20;;;4.00;;
54923;SDS011;40825;52.270;20.984;2023-06-22T14:34:10;7.60;;;5.40;;